Terminal Aerodrome Forecast
Issued by NWS

Home | Current Version | Previous Version | Text Only | Print | Product List | Glossary On
Versions: 1 2 3 4 5 6 7 8 9 10 11 12 13 14 15 16 17 18 19
572
FTUS41 KBTV 191131
TAFRUT
TAF
KRUT 191131Z 1912/2012 14012G20KT P6SM SCT250
     FM191800 16014G22KT P6SM BKN150
     FM192000 17010G17KT P6SM VCSH OVC035
     FM192200 16009KT P6SM -SHRA OVC030
     FM200500 15006KT 6SM -SHRA BR OVC025 WS020/24035KT=

USA.gov is the U.S. government's official web portal to all federal, state and local government web resources and services.